createdAt,value
2018-11-06T00:00:33.864Z,0.00
2018-11-06T00:01:33.856Z,0.00
2018-11-06T00:02:33.843Z,0.00
2018-11-06T00:03:33.822Z,0.00
2018-11-06T00:04:33.804Z,0.00
2018-11-06T00:05:33.810Z,0.00
2018-11-06T00:06:33.781Z,0.00
2018-11-06T00:07:33.784Z,0.00
2018-11-06T00:08:33.769Z,0.00
2018-11-06T00:09:33.739Z,0.00
2018-11-06T00:10:33.751Z,0.00
2018-11-06T00:11:33.719Z,0.00
2018-11-06T00:12:33.707Z,0.00
2018-11-06T00:13:33.697Z,0.00
2018-11-06T00:14:33.720Z,0.00
2018-11-06T00:15:33.678Z,0.00
2018-11-06T00:16:33.662Z,0.00
2018-11-06T00:17:33.673Z,0.00
2018-11-06T00:18:33.638Z,0.00
2018-11-06T00:19:33.636Z,0.00
2018-11-06T00:20:33.659Z,0.00
2018-11-06T00:21:33.609Z,0.00
2018-11-06T00:22:33.621Z,0.00
2018-11-06T00:23:33.587Z,0.00
2018-11-06T00:24:33.577Z,0.00
2018-11-06T00:25:33.587Z,0.00
2018-11-06T00:26:33.559Z,0.00
2018-11-06T00:27:33.579Z,0.00
2018-11-06T00:28:33.529Z,0.00
2018-11-06T00:29:33.526Z,0.00
2018-11-06T00:30:33.513Z,0.00
2018-11-06T00:31:33.496Z,0.00
2018-11-06T00:32:33.516Z,0.00
2018-11-06T00:33:33.497Z,0.00
2018-11-06T00:34:33.461Z,0.00
2018-11-06T00:35:33.465Z,0.00
2018-11-06T00:36:33.462Z,0.00
2018-11-06T00:37:33.430Z,0.00
2018-11-06T00:38:33.440Z,0.00
2018-11-06T00:39:33.425Z,0.00
2018-11-06T00:40:33.400Z,0.00
2018-11-06T00:41:33.383Z,0.00
2018-11-06T00:42:33.373Z,0.00
2018-11-06T00:43:33.378Z,0.00
2018-11-06T00:44:33.399Z,0.00
2018-11-06T00:45:33.335Z,0.00
2018-11-06T00:46:33.323Z,0.00
2018-11-06T00:47:33.318Z,0.00
2018-11-06T00:48:33.327Z,0.00
2018-11-06T00:49:33.313Z,0.00
2018-11-06T00:50:33.280Z,0.00
2018-11-06T00:51:33.291Z,0.00
2018-11-06T00:52:33.258Z,0.00
2018-11-06T00:53:33.255Z,0.00
2018-11-06T00:54:33.270Z,0.00
2018-11-06T00:55:33.222Z,0.00
2018-11-06T00:56:33.237Z,0.00
2018-11-06T00:57:33.208Z,0.00
2018-11-06T00:58:33.200Z,0.00
2018-11-06T00:59:33.197Z,0.00
2018-11-06T01:00:33.203Z,0.00
2018-11-06T01:01:33.191Z,0.00
2018-11-06T01:02:33.145Z,0.00
2018-11-06T01:03:33.133Z,0.00
2018-11-06T01:04:33.127Z,0.00
2018-11-06T01:05:33.115Z,0.00
2018-11-06T01:06:33.150Z,0.00
2018-11-06T01:07:33.091Z,0.00
2018-11-06T01:08:33.083Z,0.00
2018-11-06T01:09:33.065Z,0.00
2018-11-06T01:10:33.058Z,0.00
2018-11-06T01:11:33.068Z,0.00
2018-11-06T01:12:33.059Z,0.00
2018-11-06T01:13:33.042Z,0.00
2018-11-06T01:14:33.009Z,0.00
2018-11-06T01:15:32.998Z,0.00
2018-11-06T01:16:32.987Z,0.00
2018-11-06T01:17:33.001Z,0.00
2018-11-06T01:18:32.999Z,0.00
2018-11-06T01:19:32.953Z,0.00
2018-11-06T01:20:32.941Z,0.00
2018-11-06T01:21:32.958Z,0.00
2018-11-06T01:22:32.953Z,0.00
2018-11-06T01:23:32.922Z,0.00
2018-11-06T01:24:32.907Z,0.00
2018-11-06T01:25:32.885Z,0.00
2018-11-06T01:26:32.905Z,0.00
2018-11-06T01:27:32.890Z,0.00
2018-11-06T01:28:32.858Z,0.00
2018-11-06T01:29:32.858Z,0.00
2018-11-06T01:30:32.829Z,0.00
2018-11-06T01:31:32.841Z,0.00
2018-11-06T01:32:32.815Z,0.00
2018-11-06T01:33:32.800Z,0.00
2018-11-06T01:34:32.788Z,0.00
2018-11-06T01:35:32.795Z,0.00
2018-11-06T01:36:32.793Z,0.00
2018-11-06T01:37:32.761Z,0.00
2018-11-06T01:38:32.744Z,0.00
2018-11-06T01:39:32.757Z,0.00
2018-11-06T01:40:32.729Z,0.00
2018-11-06T01:41:32.711Z,0.00
2018-11-06T01:42:32.708Z,0.00
2018-11-06T01:43:32.709Z,0.00
2018-11-06T01:44:32.675Z,0.00
2018-11-06T01:45:32.671Z,0.00
2018-11-06T01:46:32.667Z,0.00
2018-11-06T01:47:32.639Z,0.00
2018-11-06T01:48:32.654Z,0.00
2018-11-06T01:49:32.634Z,0.00
2018-11-06T01:50:32.631Z,0.00
2018-11-06T01:51:32.695Z,0.00
2018-11-06T01:52:32.597Z,0.00
2018-11-06T01:53:32.575Z,0.00
2018-11-06T01:54:32.601Z,0.00
2018-11-06T01:55:32.574Z,0.00
2018-11-06T01:56:32.538Z,0.00
2018-11-06T01:57:32.529Z,0.00
2018-11-06T01:58:32.519Z,0.00
2018-11-06T01:59:32.542Z,0.00
2018-11-06T02:00:32.493Z,0.00
2018-11-06T02:01:32.496Z,0.00
2018-11-06T02:02:32.478Z,0.00
2018-11-06T02:03:32.492Z,0.00
2018-11-06T02:04:32.447Z,0.00
2018-11-06T02:05:32.465Z,0.00
2018-11-06T02:06:32.451Z,0.00
2018-11-06T02:07:32.416Z,0.00
2018-11-06T02:08:32.405Z,0.00
2018-11-06T02:09:32.411Z,0.00
2018-11-06T02:10:32.428Z,0.00
2018-11-06T02:11:32.370Z,0.00
2018-11-06T02:12:32.358Z,0.00
2018-11-06T02:13:32.374Z,0.00
2018-11-06T02:14:32.342Z,0.00
2018-11-06T02:15:32.337Z,0.00
2018-11-06T02:16:32.315Z,0.00
2018-11-06T02:17:32.328Z,0.00
2018-11-06T02:18:32.291Z,0.00
2018-11-06T02:19:32.279Z,0.00
2018-11-06T02:20:40.323Z,0.00
2018-11-06T02:21:32.286Z,0.00
2018-11-06T02:22:32.246Z,0.00
2018-11-06T02:23:40.290Z,0.00
2018-11-06T02:24:40.301Z,0.00
2018-11-06T02:25:32.211Z,0.00
2018-11-06T02:26:32.231Z,0.00
2018-11-06T02:27:32.227Z,0.00
2018-11-06T02:28:32.180Z,0.00
2018-11-06T02:29:32.201Z,0.00
2018-11-06T02:30:32.169Z,0.00
2018-11-06T02:31:32.148Z,0.00
2018-11-06T02:32:32.267Z,0.00
2018-11-06T02:33:32.122Z,0.00
2018-11-06T02:34:32.111Z,0.00
2018-11-06T02:35:32.102Z,0.00
2018-11-06T02:36:32.096Z,0.00
2018-11-06T02:37:32.109Z,0.00
2018-11-06T02:38:32.096Z,0.00
2018-11-06T02:39:32.062Z,0.00
2018-11-06T02:40:32.045Z,0.00
2018-11-06T02:41:32.062Z,0.00
2018-11-06T02:42:32.023Z,0.00
2018-11-06T02:43:32.046Z,0.00
2018-11-06T02:44:32.004Z,0.00
2018-11-06T02:45:31.998Z,0.00
2018-11-06T02:46:31.978Z,0.00
2018-11-06T02:47:31.967Z,0.00
2018-11-06T02:48:31.995Z,0.00
2018-11-06T02:49:31.961Z,0.00
2018-11-06T02:50:31.967Z,0.00
2018-11-06T02:51:31.922Z,0.00
2018-11-06T02:52:31.975Z,0.00
2018-11-06T02:53:31.900Z,0.00
2018-11-06T02:54:31.892Z,0.00
2018-11-06T02:55:31.898Z,0.00
2018-11-06T02:56:31.868Z,0.00
2018-11-06T02:57:31.884Z,0.00
2018-11-06T02:58:31.879Z,0.00
2018-11-06T02:59:31.836Z,0.00
2018-11-06T03:00:31.858Z,0.00
2018-11-06T03:01:31.810Z,0.00
2018-11-06T03:02:31.798Z,0.00
2018-11-06T03:03:31.786Z,0.00
2018-11-06T03:04:31.786Z,0.00
2018-11-06T03:05:31.795Z,0.00
2018-11-06T03:06:31.775Z,0.00
2018-11-06T03:07:31.844Z,0.00
2018-11-06T03:08:31.734Z,0.00
2018-11-06T03:09:31.723Z,0.00
2018-11-06T03:10:31.765Z,0.00
2018-11-06T03:11:31.720Z,0.00
2018-11-06T03:12:31.696Z,0.00
2018-11-06T03:13:31.722Z,0.00
2018-11-06T03:14:31.690Z,0.00
2018-11-06T03:15:31.656Z,0.00
2018-11-06T03:16:31.641Z,0.00
2018-11-06T03:17:31.633Z,0.00
2018-11-06T03:18:31.648Z,0.00
2018-11-06T03:19:31.608Z,0.00
2018-11-06T03:20:31.600Z,0.00
2018-11-06T03:21:31.624Z,0.00
2018-11-06T03:22:31.601Z,0.00
2018-11-06T03:23:31.567Z,0.00
2018-11-06T03:24:31.584Z,0.00
2018-11-06T03:25:31.539Z,0.00
2018-11-06T03:26:31.530Z,0.00
2018-11-06T03:27:31.542Z,0.00
2018-11-06T03:28:31.506Z,0.00
2018-11-06T03:29:31.547Z,0.00
2018-11-06T03:30:31.511Z,0.00
2018-11-06T03:31:31.475Z,0.00
2018-11-06T03:32:31.500Z,0.00
2018-11-06T03:33:31.451Z,0.00
2018-11-06T03:34:31.446Z,0.00
2018-11-06T03:35:31.455Z,0.00
2018-11-06T03:36:31.419Z,0.00
2018-11-06T03:37:31.467Z,0.00
2018-11-06T03:38:31.403Z,0.00
2018-11-06T03:39:31.388Z,0.00
2018-11-06T03:40:31.377Z,0.00
2018-11-06T03:41:31.379Z,0.00
2018-11-06T03:42:31.378Z,0.00
2018-11-06T03:43:31.417Z,0.00
2018-11-06T03:44:31.328Z,0.00
2018-11-06T03:45:31.316Z,0.00
2018-11-06T03:46:31.323Z,0.00
2018-11-06T03:47:31.321Z,0.00
2018-11-06T03:48:31.282Z,0.00
2018-11-06T03:49:31.300Z,0.00
2018-11-06T03:50:31.290Z,0.00
2018-11-06T03:51:31.249Z,0.00
2018-11-06T03:52:31.247Z,0.00
2018-11-06T03:53:31.258Z,0.00
2018-11-06T03:54:31.231Z,0.00
2018-11-06T03:55:31.207Z,0.00
2018-11-06T03:56:31.192Z,0.00
2018-11-06T03:57:31.212Z,0.00
2018-11-06T03:58:31.176Z,0.00
2018-11-06T03:59:31.161Z,0.00
2018-11-06T04:00:31.210Z,0.00
2018-11-06T04:01:31.136Z,0.00
2018-11-06T04:02:31.124Z,0.00
2018-11-06T04:03:31.118Z,0.00
2018-11-06T04:04:31.124Z,0.00
2018-11-06T04:05:31.124Z,0.00
2018-11-06T04:06:31.084Z,0.00
2018-11-06T04:07:31.075Z,0.00
2018-11-06T04:08:31.063Z,0.00
2018-11-06T04:09:31.056Z,0.00
2018-11-06T04:10:31.066Z,0.00
2018-11-06T04:11:31.029Z,0.00
2018-11-06T04:12:31.014Z,0.00
2018-11-06T04:13:31.005Z,0.00
2018-11-06T04:14:30.993Z,0.00
2018-11-06T04:15:31.013Z,0.00
2018-11-06T04:16:31.000Z,0.00
2018-11-06T04:17:30.957Z,0.00
2018-11-06T04:18:30.951Z,0.00
2018-11-06T04:19:31.011Z,0.00
2018-11-06T04:20:30.922Z,0.00
2018-11-06T04:21:30.950Z,0.00
2018-11-06T04:22:30.900Z,0.00
2018-11-06T04:23:30.943Z,0.00
2018-11-06T04:24:30.886Z,0.00
2018-11-06T04:25:30.893Z,0.00
2018-11-06T04:26:30.867Z,0.00
2018-11-06T04:27:30.892Z,0.00
2018-11-06T04:28:30.835Z,0.00
2018-11-06T04:29:30.822Z,0.00
2018-11-06T04:30:30.810Z,0.00
2018-11-06T04:31:30.823Z,0.00
2018-11-06T04:32:30.839Z,0.00
2018-11-06T04:33:30.799Z,0.00
2018-11-06T04:34:30.764Z,0.00
2018-11-06T04:35:30.754Z,0.00
2018-11-06T04:36:30.769Z,0.00
2018-11-06T04:37:30.734Z,0.00
2018-11-06T04:38:30.724Z,0.00
2018-11-06T04:39:30.708Z,0.00
2018-11-06T04:40:30.766Z,0.00
2018-11-06T04:41:30.688Z,0.00
2018-11-06T04:42:30.681Z,0.00
2018-11-06T04:43:30.666Z,0.00
2018-11-06T04:44:30.662Z,0.00
2018-11-06T04:45:30.678Z,0.00
2018-11-06T04:46:30.637Z,0.00
2018-11-06T04:47:30.646Z,0.00
2018-11-06T04:48:30.619Z,0.00
2018-11-06T04:49:30.602Z,0.00
2018-11-06T04:50:30.624Z,0.00
2018-11-06T04:51:30.607Z,0.00
2018-11-06T04:52:30.566Z,0.00
2018-11-06T04:53:30.579Z,0.00
2018-11-06T04:54:30.544Z,0.00
2018-11-06T04:55:30.532Z,0.00
2018-11-06T04:56:30.550Z,0.00
2018-11-06T04:57:30.531Z,0.00
2018-11-06T04:58:30.498Z,0.00
2018-11-06T04:59:30.509Z,0.00
2018-11-06T05:00:30.475Z,0.00
2018-11-06T05:01:30.486Z,0.00
2018-11-06T05:02:30.478Z,0.00
2018-11-06T05:03:30.487Z,0.00
2018-11-06T05:04:30.428Z,0.00
2018-11-06T05:05:30.417Z,0.00
2018-11-06T05:06:30.468Z,0.00
2018-11-06T05:07:30.401Z,0.00
2018-11-06T05:08:30.389Z,0.00
2018-11-06T05:09:30.373Z,0.00
2018-11-06T05:10:30.367Z,0.00
2018-11-06T05:11:30.373Z,0.00
2018-11-06T05:12:30.360Z,0.00
2018-11-06T05:13:30.328Z,0.00
2018-11-06T05:14:30.358Z,0.00
2018-11-06T05:15:30.309Z,0.00
2018-11-06T05:16:30.293Z,0.00
2018-11-06T05:17:30.283Z,0.00
2018-11-06T05:18:30.291Z,0.00
2018-11-06T05:19:30.290Z,0.00
2018-11-06T05:20:30.251Z,0.00
2018-11-06T05:21:30.253Z,0.00
2018-11-06T05:22:30.225Z,0.00
2018-11-06T05:23:30.240Z,0.00
2018-11-06T05:24:30.233Z,0.00
2018-11-06T05:25:30.330Z,0.00
2018-11-06T05:26:30.225Z,0.00
2018-11-06T05:27:30.402Z,0.00
2018-11-06T05:28:30.160Z,0.00
2018-11-06T05:29:30.153Z,0.00
2018-11-06T05:30:30.149Z,0.00
2018-11-06T05:31:30.150Z,0.00
2018-11-06T05:32:30.118Z,0.00
2018-11-06T05:33:30.134Z,0.00
2018-11-06T05:34:30.091Z,0.00
2018-11-06T05:35:30.092Z,0.00
2018-11-06T05:36:30.069Z,0.00
2018-11-06T05:37:30.089Z,0.00
2018-11-06T05:38:30.051Z,0.00
2018-11-06T05:39:30.156Z,0.00
2018-11-06T05:40:30.064Z,0.00
2018-11-06T05:41:30.033Z,0.00
2018-11-06T05:42:30.039Z,0.00
2018-11-06T05:43:29.992Z,0.00
2018-11-06T05:44:29.982Z,0.00
2018-11-06T05:45:30.030Z,0.00
2018-11-06T05:46:29.983Z,0.00
2018-11-06T05:47:29.969Z,0.00
2018-11-06T05:48:29.968Z,0.00
2018-11-06T05:49:29.929Z,4.00
2018-11-06T05:50:29.916Z,4.00
2018-11-06T05:51:29.908Z,0.00
2018-11-06T05:52:29.913Z,4.00
2018-11-06T05:53:29.906Z,0.00
2018-11-06T05:54:29.871Z,4.00
2018-11-06T05:55:29.878Z,0.00
2018-11-06T05:56:29.867Z,4.00
2018-11-06T05:57:29.834Z,4.00
2018-11-06T05:58:29.851Z,4.00
2018-11-06T05:59:29.811Z,4.00
2018-11-06T06:00:29.909Z,8.00
2018-11-06T06:01:29.819Z,8.00
2018-11-06T06:02:29.775Z,12.00
2018-11-06T06:03:29.785Z,8.00
2018-11-06T06:04:29.769Z,12.00
2018-11-06T06:05:29.743Z,16.00
2018-11-06T06:06:29.788Z,16.00
2018-11-06T06:07:29.719Z,24.00
2018-11-06T06:08:29.711Z,24.00
2018-11-06T06:09:29.729Z,32.00
2018-11-06T06:10:29.724Z,32.00
2018-11-06T06:11:29.682Z,40.00
2018-11-06T06:12:29.664Z,44.00
2018-11-06T06:13:29.657Z,48.00
2018-11-06T06:14:29.679Z,56.00
2018-11-06T06:15:29.634Z,64.00
2018-11-06T06:16:29.662Z,68.00
2018-11-06T06:17:29.646Z,80.00
2018-11-06T06:18:29.616Z,88.00
2018-11-06T06:19:29.607Z,96.00
2018-11-06T06:20:29.579Z,104.00
2018-11-06T06:21:29.564Z,112.00
2018-11-06T06:22:29.691Z,124.00
2018-11-06T06:23:29.560Z,136.00
2018-11-06T06:24:29.555Z,148.00
2018-11-06T06:25:29.521Z,160.00
2018-11-06T06:26:29.511Z,172.00
2018-11-06T06:27:29.498Z,184.00
2018-11-06T06:28:29.534Z,200.00
2018-11-06T06:29:29.478Z,212.00
2018-11-06T06:30:29.461Z,228.00
2018-11-06T06:31:29.468Z,244.00
2018-11-06T06:32:29.481Z,260.00
2018-11-06T06:33:29.434Z,276.00
2018-11-06T06:34:29.471Z,292.00
2018-11-06T06:35:29.404Z,308.00
2018-11-06T06:36:29.398Z,324.00
2018-11-06T06:37:29.411Z,340.00
2018-11-06T06:38:29.452Z,360.00
2018-11-06T06:39:29.444Z,376.00
2018-11-06T06:40:29.351Z,392.00
2018-11-06T06:41:29.341Z,408.00
2018-11-06T06:42:29.351Z,428.00
2018-11-06T06:43:29.319Z,444.00
2018-11-06T06:44:29.327Z,460.00
2018-11-06T06:45:29.295Z,476.00
2018-11-06T06:46:29.394Z,492.00
2018-11-06T06:47:29.274Z,508.00
2018-11-06T06:48:29.273Z,524.00
2018-11-06T06:49:29.277Z,540.00
2018-11-06T06:50:29.243Z,556.00
2018-11-06T06:51:29.236Z,568.00
2018-11-06T06:52:29.227Z,584.00
2018-11-06T06:53:29.204Z,600.00
2018-11-06T06:54:29.383Z,612.00
2018-11-06T06:55:29.185Z,632.00
2018-11-06T06:56:29.182Z,648.00
2018-11-06T06:57:29.221Z,668.00
2018-11-06T06:58:29.178Z,684.00
2018-11-06T06:59:29.136Z,708.00
2018-11-06T07:00:29.126Z,736.00
2018-11-06T07:01:29.119Z,764.00
2018-11-06T07:02:29.187Z,796.00
2018-11-06T07:03:29.090Z,840.00
2018-11-06T07:04:29.080Z,876.00
2018-11-06T07:05:29.084Z,920.00
2018-11-06T07:06:29.074Z,956.00
2018-11-06T07:07:29.080Z,996.00
2018-11-06T07:08:29.040Z,1032.00
2018-11-06T07:09:29.023Z,1068.00
2018-11-06T07:10:29.012Z,1092.00
2018-11-06T07:11:29.012Z,1120.00
2018-11-06T07:12:29.012Z,1148.00
2018-11-06T07:13:28.990Z,1184.00
2018-11-06T07:14:28.971Z,1208.00
2018-11-06T07:15:28.989Z,1232.00
2018-11-06T07:16:28.955Z,1244.00
2018-11-06T07:17:28.937Z,1264.00
2018-11-06T07:18:28.955Z,1280.00
2018-11-06T07:19:28.930Z,1292.00
2018-11-06T07:20:28.924Z,1288.00
2018-11-06T07:21:28.889Z,1312.00
2018-11-06T07:22:28.901Z,1328.00
2018-11-06T07:23:28.874Z,1344.00
2018-11-06T07:24:28.858Z,1352.00
2018-11-06T07:25:28.875Z,1400.00
2018-11-06T07:26:28.840Z,1436.00
2018-11-06T07:27:28.821Z,1456.00
2018-11-06T07:28:28.823Z,1492.00
2018-11-06T07:29:28.798Z,1528.00
2018-11-06T07:30:28.814Z,1568.00
2018-11-06T07:31:28.782Z,1596.00
2018-11-06T07:32:28.769Z,1616.00
2018-11-06T07:33:28.778Z,1640.00
2018-11-06T07:34:28.776Z,1640.00
2018-11-06T07:35:28.811Z,1668.00
2018-11-06T07:36:28.730Z,1704.00
2018-11-06T07:37:28.716Z,1716.00
2018-11-06T07:38:28.724Z,1736.00
2018-11-06T07:39:28.695Z,1712.00
2018-11-06T07:40:28.757Z,1732.00
2018-11-06T07:41:28.667Z,1792.00
2018-11-06T07:42:28.667Z,1824.00
2018-11-06T07:43:28.682Z,1836.00
2018-11-06T07:44:28.632Z,1856.00
2018-11-06T07:45:28.634Z,1888.00
2018-11-06T07:46:28.609Z,1908.00
2018-11-06T07:47:28.603Z,1924.00
2018-11-06T07:48:28.631Z,1912.00
2018-11-06T07:49:28.586Z,1908.00
2018-11-06T07:50:28.645Z,1936.00
2018-11-06T07:51:28.551Z,1940.00
2018-11-06T07:52:28.551Z,1972.00
2018-11-06T07:53:28.567Z,1972.00
2018-11-06T07:54:28.518Z,1956.00
2018-11-06T07:55:28.519Z,1984.00
2018-11-06T07:56:28.498Z,2004.00
2018-11-06T07:57:28.506Z,2044.00
2018-11-06T07:58:28.509Z,2044.00
2018-11-06T07:59:28.468Z,2040.00
2018-11-06T08:00:28.477Z,2024.00
2018-11-06T08:01:28.447Z,2032.00
2018-11-06T08:02:28.430Z,2020.00
2018-11-06T08:03:28.417Z,2020.00
2018-11-06T08:04:28.543Z,2028.00
2018-11-06T08:05:28.415Z,2080.00
2018-11-06T08:06:28.446Z,2112.00
2018-11-06T08:07:28.381Z,2168.00
2018-11-06T08:08:28.364Z,2196.00
2018-11-06T08:09:28.495Z,2196.00
2018-11-06T08:10:28.368Z,2208.00
2018-11-06T08:11:28.330Z,2232.00
2018-11-06T08:12:28.318Z,2252.00
2018-11-06T08:13:28.329Z,2252.00
2018-11-06T08:14:28.356Z,2264.00
2018-11-06T08:15:28.325Z,2280.00
2018-11-06T08:16:28.318Z,2324.00
2018-11-06T08:17:28.260Z,2344.00
2018-11-06T08:18:28.254Z,2392.00
2018-11-06T08:19:28.239Z,2428.00
2018-11-06T08:20:28.259Z,2460.00
2018-11-06T08:21:28.260Z,2476.00
2018-11-06T08:22:28.218Z,2500.00
2018-11-06T08:23:28.245Z,2524.00
2018-11-06T08:24:28.187Z,2536.00
2018-11-06T08:25:28.174Z,2568.00
2018-11-06T08:26:28.189Z,2572.00
2018-11-06T08:27:28.183Z,2576.00
2018-11-06T08:28:28.153Z,2600.00
2018-11-06T08:29:28.152Z,2636.00
2018-11-06T08:30:28.157Z,2644.00
2018-11-06T08:31:28.853Z,2660.00
2018-11-06T08:32:28.677Z,2700.00
2018-11-06T08:33:28.088Z,2724.00
2018-11-06T08:34:28.110Z,2748.00
2018-11-06T08:35:28.058Z,2784.00
2018-11-06T08:36:28.067Z,2792.00
2018-11-06T08:37:28.060Z,2812.00
2018-11-06T08:38:28.026Z,2832.00
2018-11-06T08:39:28.039Z,2876.00
2018-11-06T08:40:28.016Z,2908.00
2018-11-06T08:41:28.083Z,2912.00
2018-11-06T08:42:28.108Z,2932.00
2018-11-06T08:43:27.969Z,2940.00
2018-11-06T08:44:28.073Z,2904.00
2018-11-06T08:45:27.952Z,2852.00
2018-11-06T08:46:27.934Z,2852.00
2018-11-06T08:47:28.120Z,2864.00
2018-11-06T08:48:27.913Z,2904.00
2018-11-06T08:49:27.901Z,2920.00
2018-11-06T08:50:27.893Z,2968.00
2018-11-06T08:51:27.886Z,2968.00
2018-11-06T08:52:27.897Z,2952.00
2018-11-06T08:53:27.862Z,2976.00
2018-11-06T08:54:27.918Z,3008.00
2018-11-06T08:55:27.858Z,3032.00
2018-11-06T08:56:27.821Z,3000.00
2018-11-06T08:57:27.837Z,3020.00
2018-11-06T08:58:27.800Z,3032.00
2018-11-06T08:59:27.790Z,3028.00
2018-11-06T09:00:27.803Z,3032.00
2018-11-06T09:01:27.767Z,3052.00
2018-11-06T09:02:27.772Z,3108.00
2018-11-06T09:03:27.769Z,3148.00
2018-11-06T09:04:27.732Z,3128.00
2018-11-06T09:05:27.748Z,3140.00
2018-11-06T09:06:27.713Z,3160.00
2018-11-06T09:07:27.703Z,3172.00
2018-11-06T09:08:27.695Z,3224.00
2018-11-06T09:09:27.705Z,3260.00
2018-11-06T09:10:27.688Z,3296.00
2018-11-06T09:11:27.658Z,3276.00
2018-11-06T09:12:27.646Z,3272.00
2018-11-06T09:13:27.635Z,3268.00
2018-11-06T09:14:27.620Z,3284.00
2018-11-06T09:15:27.647Z,3264.00
2018-11-06T09:16:27.596Z,3236.00
2018-11-06T09:17:27.587Z,3280.00
2018-11-06T09:18:27.583Z,3332.00
2018-11-06T09:19:27.588Z,3364.00
2018-11-06T09:20:27.551Z,3404.00
2018-11-06T09:21:27.541Z,3436.00
2018-11-06T09:22:27.529Z,3524.00
2018-11-06T09:23:28.042Z,3504.00
2018-11-06T09:24:27.533Z,3508.00
2018-11-06T09:25:27.532Z,3548.00
2018-11-06T09:26:27.482Z,3588.00
2018-11-06T09:27:27.475Z,3608.00
2018-11-06T09:28:27.470Z,3608.00
2018-11-06T09:29:27.479Z,3684.00
2018-11-06T09:30:27.465Z,3712.00
2018-11-06T09:31:27.445Z,3764.00
2018-11-06T09:32:27.429Z,3768.00
2018-11-06T09:33:27.411Z,3760.00
2018-11-06T09:34:27.425Z,3768.00
2018-11-06T09:35:27.389Z,3788.00
2018-11-06T09:36:27.378Z,3608.00
2018-11-06T09:37:27.360Z,3504.00
2018-11-06T09:38:27.381Z,3520.00
2018-11-06T09:39:27.365Z,3580.00
2018-11-06T09:40:27.329Z,3628.00
2018-11-06T09:41:27.421Z,3712.00
2018-11-06T09:42:27.303Z,3796.00
2018-11-06T09:43:27.332Z,3840.00
2018-11-06T09:44:27.320Z,3880.00
2018-11-06T09:45:27.358Z,3992.00
2018-11-06T09:46:27.262Z,4052.00
2018-11-06T09:47:27.279Z,4052.00
2018-11-06T09:48:27.242Z,4064.00
2018-11-06T09:49:27.223Z,4048.00
2018-11-06T09:50:27.212Z,4036.00
2018-11-06T09:51:27.227Z,4004.00
2018-11-06T09:52:27.196Z,3964.00
2018-11-06T09:53:27.217Z,3928.00
2018-11-06T09:54:27.219Z,3780.00
2018-11-06T09:55:27.156Z,3680.00
2018-11-06T09:56:27.157Z,3736.00
2018-11-06T09:57:27.136Z,3924.00
2018-11-06T09:58:27.123Z,3956.00
2018-11-06T09:59:27.137Z,4076.00
2018-11-06T10:00:27.103Z,4116.00
2018-11-06T10:01:27.133Z,4056.00
2018-11-06T10:02:27.077Z,4008.00
2018-11-06T10:03:27.067Z,3948.00
2018-11-06T10:04:27.058Z,3816.00
2018-11-06T10:05:27.073Z,3860.00
2018-11-06T10:06:27.135Z,3908.00
2018-11-06T10:07:27.240Z,3840.00
2018-11-06T10:08:27.008Z,3688.00
2018-11-06T10:09:26.999Z,3688.00
2018-11-06T10:10:26.990Z,3744.00
2018-11-06T10:11:27.117Z,3776.00
2018-11-06T10:12:27.003Z,3700.00
2018-11-06T10:13:26.987Z,3732.00
2018-11-06T10:14:26.948Z,3900.00
2018-11-06T10:15:26.946Z,3988.00
2018-11-06T10:16:26.944Z,4104.00
2018-11-06T10:17:26.931Z,4168.00
2018-11-06T10:18:26.903Z,4212.00
2018-11-06T10:19:26.889Z,4416.00
2018-11-06T10:20:26.877Z,4344.00
2018-11-06T10:21:26.926Z,4296.00
2018-11-06T10:22:26.881Z,4052.00
2018-11-06T10:23:26.862Z,4008.00
2018-11-06T10:24:26.832Z,3992.00
2018-11-06T10:25:26.821Z,4004.00
2018-11-06T10:26:26.806Z,3872.00
2018-11-06T10:27:26.823Z,3796.00
2018-11-06T10:28:26.792Z,3796.00
2018-11-06T10:29:26.773Z,3848.00
2018-11-06T10:30:26.788Z,3932.00
2018-11-06T10:31:26.762Z,3804.00
2018-11-06T10:32:26.742Z,3708.00
2018-11-06T10:33:26.755Z,3684.00
2018-11-06T10:34:26.766Z,3724.00
2018-11-06T10:35:26.703Z,3752.00
2018-11-06T10:36:26.694Z,3736.00
2018-11-06T10:37:26.682Z,3748.00
2018-11-06T10:38:26.679Z,3804.00
2018-11-06T10:39:26.689Z,3876.00
2018-11-06T10:40:26.649Z,3944.00
2018-11-06T10:41:26.640Z,3932.00
2018-11-06T10:42:26.633Z,3932.00
2018-11-06T10:43:26.630Z,3924.00
2018-11-06T10:44:26.641Z,3940.00
2018-11-06T10:45:26.597Z,4144.00
2018-11-06T10:46:26.582Z,4420.00
2018-11-06T10:47:26.566Z,4532.00
2018-11-06T10:48:26.579Z,4684.00
2018-11-06T10:49:26.581Z,4764.00
2018-11-06T10:50:26.535Z,4964.00
2018-11-06T10:51:26.537Z,4832.00
2018-11-06T10:52:26.509Z,4892.00
2018-11-06T10:53:26.510Z,4756.00
2018-11-06T10:54:26.510Z,5096.00
2018-11-06T10:55:26.500Z,5184.00
2018-11-06T10:56:26.474Z,5064.00
2018-11-06T10:57:26.454Z,5000.00
2018-11-06T10:58:26.441Z,5032.00
2018-11-06T10:59:26.443Z,5096.00
2018-11-06T11:00:26.444Z,5200.00
2018-11-06T11:01:26.413Z,5264.00
2018-11-06T11:02:26.447Z,5300.00
2018-11-06T11:03:26.422Z,5220.00
2018-11-06T11:04:26.375Z,5060.00
2018-11-06T11:05:26.371Z,4944.00
2018-11-06T11:06:26.359Z,4780.00
2018-11-06T11:07:26.379Z,4880.00
2018-11-06T11:08:26.330Z,4908.00
2018-11-06T11:09:26.320Z,4828.00
2018-11-06T11:10:26.311Z,4784.00
2018-11-06T11:11:26.305Z,4896.00
2018-11-06T11:12:26.327Z,4844.00
2018-11-06T11:13:26.341Z,4760.00
2018-11-06T11:14:26.268Z,4756.00
2018-11-06T11:15:26.250Z,4848.00
2018-11-06T11:16:26.239Z,4988.00
2018-11-06T11:17:26.257Z,4680.00
2018-11-06T11:18:26.221Z,4940.00
2018-11-06T11:19:26.206Z,4760.00
2018-11-06T11:20:26.208Z,4544.00
2018-11-06T11:21:26.183Z,4552.00
2018-11-06T11:22:26.198Z,4628.00
2018-11-06T11:23:26.164Z,4600.00
2018-11-06T11:24:26.177Z,4548.00
2018-11-06T11:25:26.175Z,4488.00
2018-11-06T11:26:26.128Z,4416.00
2018-11-06T11:27:26.117Z,4356.00
2018-11-06T11:28:26.109Z,4484.00
2018-11-06T11:29:26.123Z,4352.00
2018-11-06T11:30:26.092Z,3996.00
2018-11-06T11:31:26.125Z,3924.00
2018-11-06T11:32:26.073Z,3756.00
2018-11-06T11:33:26.046Z,3816.00
2018-11-06T11:34:26.067Z,3824.00
2018-11-06T11:35:26.049Z,3740.00
2018-11-06T11:36:26.029Z,3696.00
2018-11-06T11:37:26.003Z,3796.00
2018-11-06T11:38:25.996Z,3928.00
2018-11-06T11:39:25.988Z,4012.00
2018-11-06T11:40:26.005Z,4040.00
2018-11-06T11:41:25.966Z,4380.00
2018-11-06T11:42:25.948Z,3608.00
2018-11-06T11:43:25.963Z,3332.00
2018-11-06T11:44:25.934Z,3628.00
2018-11-06T11:45:25.924Z,3744.00
2018-11-06T11:46:25.933Z,3552.00
2018-11-06T11:47:25.899Z,3592.00
2018-11-06T11:48:25.884Z,3612.00
2018-11-06T11:49:25.869Z,3568.00
2018-11-06T11:50:25.863Z,3532.00
2018-11-06T11:51:25.870Z,3320.00
2018-11-06T11:52:25.860Z,3372.00
2018-11-06T11:53:25.824Z,3404.00
2018-11-06T11:54:25.822Z,3288.00
2018-11-06T11:55:25.805Z,3268.00
2018-11-06T11:56:25.794Z,3192.00
2018-11-06T11:57:25.821Z,3168.00
2018-11-06T11:58:25.769Z,3348.00
2018-11-06T11:59:25.761Z,3568.00
2018-11-06T12:00:25.753Z,3732.00
2018-11-06T12:01:25.743Z,3696.00
2018-11-06T12:02:25.749Z,3664.00
2018-11-06T12:03:25.734Z,3736.00
2018-11-06T12:04:25.701Z,3800.00
2018-11-06T12:05:25.693Z,3800.00
2018-11-06T12:06:25.685Z,3796.00
2018-11-06T12:07:25.671Z,3768.00
2018-11-06T12:08:25.677Z,3792.00
2018-11-06T12:09:25.650Z,3640.00
2018-11-06T12:10:25.635Z,3636.00
2018-11-06T12:11:25.627Z,3536.00
2018-11-06T12:12:25.641Z,3464.00
2018-11-06T12:13:25.599Z,3400.00
2018-11-06T12:14:25.611Z,3484.00
2018-11-06T12:15:25.576Z,3516.00
2018-11-06T12:16:25.565Z,3576.00
2018-11-06T12:17:25.608Z,3620.00
2018-11-06T12:18:25.663Z,3820.00
2018-11-06T12:19:25.555Z,3788.00
2018-11-06T12:20:25.521Z,3704.00
2018-11-06T12:21:25.514Z,3620.00
2018-11-06T12:22:25.515Z,3600.00
2018-11-06T12:23:25.489Z,3540.00
2018-11-06T12:24:25.559Z,3520.00
2018-11-06T12:25:25.828Z,3488.00
2018-11-06T12:26:25.451Z,3396.00
2018-11-06T12:27:25.440Z,3384.00
2018-11-06T12:28:25.437Z,3404.00
2018-11-06T12:29:25.447Z,3488.00
2018-11-06T12:30:25.411Z,3592.00
2018-11-06T12:31:25.412Z,3604.00
2018-11-06T12:32:25.396Z,3644.00
2018-11-06T12:33:25.377Z,3700.00
2018-11-06T12:34:25.403Z,3700.00
2018-11-06T12:35:25.359Z,3796.00
2018-11-06T12:36:25.401Z,3984.00
2018-11-06T12:37:25.337Z,3904.00
2018-11-06T12:38:25.321Z,4036.00
2018-11-06T12:39:25.327Z,3884.00
2018-11-06T12:40:25.319Z,3756.00
2018-11-06T12:41:25.287Z,3652.00